sensor_id;sensor_type;location;lat;lon;timestamp;P1;durP1;ratioP1;P2;durP2;ratioP2
25758;SDS011;13604;52.496;13.456;2023-05-10T00:01:26;8.55;;;5.80;;
25758;SDS011;13604;52.496;13.456;2023-05-10T00:03:51;9.77;;;5.70;;
25758;SDS011;13604;52.496;13.456;2023-05-10T00:06:16;17.77;;;5.55;;
25758;SDS011;13604;52.496;13.456;2023-05-10T00:08:42;10.55;;;5.90;;
25758;SDS011;13604;52.496;13.456;2023-05-10T00:11:07;10.40;;;6.10;;
25758;SDS011;13604;52.496;13.456;2023-05-10T00:13:35;16.77;;;5.97;;
25758;SDS011;13604;52.496;13.456;2023-05-10T00:16:01;12.27;;;5.93;;
25758;SDS011;13604;52.496;13.456;2023-05-10T00:18:26;11.05;;;5.50;;
25758;SDS011;13604;52.496;13.456;2023-05-10T00:20:51;8.20;;;6.07;;
25758;SDS011;13604;52.496;13.456;2023-05-10T00:23:17;9.40;;;6.25;;
25758;SDS011;13604;52.496;13.456;2023-05-10T00:25:42;10.20;;;6.80;;
25758;SDS011;13604;52.496;13.456;2023-05-10T00:28:08;12.77;;;6.78;;
25758;SDS011;13604;52.496;13.456;2023-05-10T00:30:33;10.55;;;7.18;;
25758;SDS011;13604;52.496;13.456;2023-05-10T00:32:58;9.68;;;5.60;;
25758;SDS011;13604;52.496;13.456;2023-05-10T00:35:24;9.48;;;6.85;;
25758;SDS011;13604;52.496;13.456;2023-05-10T00:37:49;15.00;;;6.88;;
25758;SDS011;13604;52.496;13.456;2023-05-10T00:40:15;13.15;;;6.38;;
25758;SDS011;13604;52.496;13.456;2023-05-10T00:42:40;10.05;;;6.32;;
25758;SDS011;13604;52.496;13.456;2023-05-10T00:45:05;11.85;;;6.45;;
25758;SDS011;13604;52.496;13.456;2023-05-10T00:47:33;9.15;;;6.10;;
25758;SDS011;13604;52.496;13.456;2023-05-10T00:49:59;11.30;;;6.53;;
25758;SDS011;13604;52.496;13.456;2023-05-10T00:52:25;16.23;;;6.45;;
25758;SDS011;13604;52.496;13.456;2023-05-10T00:54:53;11.27;;;5.38;;
25758;SDS011;13604;52.496;13.456;2023-05-10T00:57:19;11.50;;;6.30;;
25758;SDS011;13604;52.496;13.456;2023-05-10T00:59:45;10.20;;;6.45;;
25758;SDS011;13604;52.496;13.456;2023-05-10T01:02:10;9.18;;;5.88;;
25758;SDS011;13604;52.496;13.456;2023-05-10T01:04:36;13.60;;;6.22;;
25758;SDS011;13604;52.496;13.456;2023-05-10T01:07:02;10.60;;;6.50;;
25758;SDS011;13604;52.496;13.456;2023-05-10T01:09:28;10.52;;;6.00;;
25758;SDS011;13604;52.496;13.456;2023-05-10T01:11:53;11.93;;;5.88;;
25758;SDS011;13604;52.496;13.456;2023-05-10T01:14:19;12.73;;;6.57;;
25758;SDS011;13604;52.496;13.456;2023-05-10T01:16:46;12.30;;;6.75;;
25758;SDS011;13604;52.496;13.456;2023-05-10T01:19:20;8.30;;;5.93;;
25758;SDS011;13604;52.496;13.456;2023-05-10T01:21:54;8.00;;;6.15;;
25758;SDS011;13604;52.496;13.456;2023-05-10T01:24:50;10.15;;;6.53;;
25758;SDS011;13604;52.496;13.456;2023-05-10T01:30:43;8.70;;;6.72;;
25758;SDS011;13604;52.496;13.456;2023-05-10T01:33:43;11.73;;;6.20;;
25758;SDS011;13604;52.496;13.456;2023-05-10T01:36:26;9.77;;;6.65;;
25758;SDS011;13604;52.496;13.456;2023-05-10T01:39:15;9.68;;;6.18;;
25758;SDS011;13604;52.496;13.456;2023-05-10T01:44:34;13.30;;;6.47;;
25758;SDS011;13604;52.496;13.456;2023-05-10T01:47:46;11.47;;;6.13;;
25758;SDS011;13604;52.496;13.456;2023-05-10T01:50:08;11.68;;;6.38;;
25758;SDS011;13604;52.496;13.456;2023-05-10T01:52:44;15.35;;;6.78;;
25758;SDS011;13604;52.496;13.456;2023-05-10T01:55:13;14.65;;;6.47;;
25758;SDS011;13604;52.496;13.456;2023-05-10T01:57:42;15.95;;;6.53;;
25758;SDS011;13604;52.496;13.456;2023-05-10T02:00:09;10.45;;;6.50;;
25758;SDS011;13604;52.496;13.456;2023-05-10T02:02:37;8.05;;;6.00;;
25758;SDS011;13604;52.496;13.456;2023-05-10T02:05:05;11.75;;;6.43;;
25758;SDS011;13604;52.496;13.456;2023-05-10T02:07:33;13.70;;;6.10;;
25758;SDS011;13604;52.496;13.456;2023-05-10T02:10:04;9.38;;;6.07;;
25758;SDS011;13604;52.496;13.456;2023-05-10T02:12:34;10.05;;;5.90;;
25758;SDS011;13604;52.496;13.456;2023-05-10T02:15:01;10.10;;;5.93;;
25758;SDS011;13604;52.496;13.456;2023-05-10T02:17:30;10.93;;;6.45;;
25758;SDS011;13604;52.496;13.456;2023-05-10T02:19:57;11.27;;;6.18;;
25758;SDS011;13604;52.496;13.456;2023-05-10T02:22:25;10.13;;;6.20;;
25758;SDS011;13604;52.496;13.456;2023-05-10T02:24:52;11.93;;;6.50;;
25758;SDS011;13604;52.496;13.456;2023-05-10T02:27:22;8.10;;;6.03;;
25758;SDS011;13604;52.496;13.456;2023-05-10T02:29:49;9.55;;;6.90;;
25758;SDS011;13604;52.496;13.456;2023-05-10T02:32:16;11.55;;;6.53;;
25758;SDS011;13604;52.496;13.456;2023-05-10T02:34:43;11.77;;;6.55;;
25758;SDS011;13604;52.496;13.456;2023-05-10T02:37:12;11.98;;;5.95;;
25758;SDS011;13604;52.496;13.456;2023-05-10T02:39:39;10.43;;;6.03;;
25758;SDS011;13604;52.496;13.456;2023-05-10T02:42:09;8.20;;;5.57;;
25758;SDS011;13604;52.496;13.456;2023-05-10T02:44:38;12.13;;;5.93;;
25758;SDS011;13604;52.496;13.456;2023-05-10T02:47:06;9.10;;;5.70;;
25758;SDS011;13604;52.496;13.456;2023-05-10T02:49:31;9.38;;;6.13;;
25758;SDS011;13604;52.496;13.456;2023-05-10T02:51:58;8.02;;;5.35;;
25758;SDS011;13604;52.496;13.456;2023-05-10T02:54:27;8.77;;;5.78;;
25758;SDS011;13604;52.496;13.456;2023-05-10T02:57:02;9.40;;;5.97;;
25758;SDS011;13604;52.496;13.456;2023-05-10T02:59:29;10.70;;;6.15;;
25758;SDS011;13604;52.496;13.456;2023-05-10T03:01:54;9.35;;;5.80;;
25758;SDS011;13604;52.496;13.456;2023-05-10T03:04:20;9.02;;;5.93;;
25758;SDS011;13604;52.496;13.456;2023-05-10T03:06:45;12.38;;;5.57;;
25758;SDS011;13604;52.496;13.456;2023-05-10T03:09:11;10.27;;;5.47;;
25758;SDS011;13604;52.496;13.456;2023-05-10T03:14:28;7.22;;;5.22;;
25758;SDS011;13604;52.496;13.456;2023-05-10T03:19:41;10.25;;;6.00;;
25758;SDS011;13604;52.496;13.456;2023-05-10T03:22:11;7.78;;;5.47;;
25758;SDS011;13604;52.496;13.456;2023-05-10T03:24:41;12.45;;;5.63;;
25758;SDS011;13604;52.496;13.456;2023-05-10T03:27:10;11.00;;;6.05;;
25758;SDS011;13604;52.496;13.456;2023-05-10T03:29:36;9.52;;;5.53;;
25758;SDS011;13604;52.496;13.456;2023-05-10T03:32:03;9.43;;;6.10;;
25758;SDS011;13604;52.496;13.456;2023-05-10T03:34:29;8.45;;;5.47;;
25758;SDS011;13604;52.496;13.456;2023-05-10T03:36:56;12.30;;;5.80;;
25758;SDS011;13604;52.496;13.456;2023-05-10T03:39:22;12.68;;;5.72;;
25758;SDS011;13604;52.496;13.456;2023-05-10T03:41:47;8.38;;;6.10;;
25758;SDS011;13604;52.496;13.456;2023-05-10T03:44:13;10.50;;;5.63;;
25758;SDS011;13604;52.496;13.456;2023-05-10T03:46:39;9.77;;;5.40;;
25758;SDS011;13604;52.496;13.456;2023-05-10T03:49:04;12.77;;;5.93;;
25758;SDS011;13604;52.496;13.456;2023-05-10T03:51:30;12.63;;;5.72;;
25758;SDS011;13604;52.496;13.456;2023-05-10T03:53:56;11.05;;;5.57;;
25758;SDS011;13604;52.496;13.456;2023-05-10T03:56:21;12.10;;;5.80;;
25758;SDS011;13604;52.496;13.456;2023-05-10T03:58:46;7.70;;;4.97;;
25758;SDS011;13604;52.496;13.456;2023-05-10T04:01:12;8.93;;;5.70;;
25758;SDS011;13604;52.496;13.456;2023-05-10T04:03:37;10.48;;;5.63;;
25758;SDS011;13604;52.496;13.456;2023-05-10T04:06:03;12.38;;;5.28;;
25758;SDS011;13604;52.496;13.456;2023-05-10T04:08:28;12.25;;;5.40;;
25758;SDS011;13604;52.496;13.456;2023-05-10T04:10:54;10.27;;;5.68;;
25758;SDS011;13604;52.496;13.456;2023-05-10T04:13:20;12.90;;;5.45;;
25758;SDS011;13604;52.496;13.456;2023-05-10T04:15:47;9.32;;;5.60;;
25758;SDS011;13604;52.496;13.456;2023-05-10T04:18:12;8.70;;;5.68;;
25758;SDS011;13604;52.496;13.456;2023-05-10T04:20:38;8.75;;;5.90;;
25758;SDS011;13604;52.496;13.456;2023-05-10T04:23:03;9.65;;;5.82;;
25758;SDS011;13604;52.496;13.456;2023-05-10T04:25:28;13.60;;;5.13;;
25758;SDS011;13604;52.496;13.456;2023-05-10T04:27:53;13.63;;;5.30;;
25758;SDS011;13604;52.496;13.456;2023-05-10T04:30:19;16.10;;;6.32;;
25758;SDS011;13604;52.496;13.456;2023-05-10T04:32:44;12.15;;;5.35;;
25758;SDS011;13604;52.496;13.456;2023-05-10T04:35:09;13.93;;;5.55;;
25758;SDS011;13604;52.496;13.456;2023-05-10T04:37:35;15.18;;;5.20;;
25758;SDS011;13604;52.496;13.456;2023-05-10T04:40:01;8.93;;;5.18;;
25758;SDS011;13604;52.496;13.456;2023-05-10T04:42:28;11.82;;;5.68;;
25758;SDS011;13604;52.496;13.456;2023-05-10T04:44:53;10.63;;;4.53;;
25758;SDS011;13604;52.496;13.456;2023-05-10T04:47:20;8.38;;;5.25;;
25758;SDS011;13604;52.496;13.456;2023-05-10T04:49:45;10.73;;;5.72;;
25758;SDS011;13604;52.496;13.456;2023-05-10T04:52:10;18.70;;;5.80;;
25758;SDS011;13604;52.496;13.456;2023-05-10T04:54:36;9.45;;;5.15;;
25758;SDS011;13604;52.496;13.456;2023-05-10T04:57:01;9.35;;;6.13;;
25758;SDS011;13604;52.496;13.456;2023-05-10T04:59:27;7.50;;;4.80;;
25758;SDS011;13604;52.496;13.456;2023-05-10T05:01:52;10.88;;;4.43;;
25758;SDS011;13604;52.496;13.456;2023-05-10T05:04:17;8.63;;;5.15;;
25758;SDS011;13604;52.496;13.456;2023-05-10T05:06:46;8.85;;;4.55;;
25758;SDS011;13604;52.496;13.456;2023-05-10T05:09:12;10.15;;;5.05;;
25758;SDS011;13604;52.496;13.456;2023-05-10T05:11:39;9.15;;;4.40;;
25758;SDS011;13604;52.496;13.456;2023-05-10T05:14:05;7.18;;;4.78;;
25758;SDS011;13604;52.496;13.456;2023-05-10T05:16:30;9.52;;;4.93;;
25758;SDS011;13604;52.496;13.456;2023-05-10T05:18:56;8.65;;;4.60;;
25758;SDS011;13604;52.496;13.456;2023-05-10T05:21:22;7.57;;;4.32;;
25758;SDS011;13604;52.496;13.456;2023-05-10T05:23:47;9.68;;;4.93;;
25758;SDS011;13604;52.496;13.456;2023-05-10T05:26:12;6.95;;;4.82;;
25758;SDS011;13604;52.496;13.456;2023-05-10T05:28:38;9.27;;;4.47;;
25758;SDS011;13604;52.496;13.456;2023-05-10T05:31:07;6.97;;;4.50;;
25758;SDS011;13604;52.496;13.456;2023-05-10T05:33:32;8.65;;;4.50;;
25758;SDS011;13604;52.496;13.456;2023-05-10T05:36:02;7.75;;;4.35;;
25758;SDS011;13604;52.496;13.456;2023-05-10T05:38:28;13.98;;;4.18;;
25758;SDS011;13604;52.496;13.456;2023-05-10T05:40:54;13.52;;;5.50;;
25758;SDS011;13604;52.496;13.456;2023-05-10T05:43:19;8.80;;;4.63;;
25758;SDS011;13604;52.496;13.456;2023-05-10T05:45:45;7.30;;;3.88;;
25758;SDS011;13604;52.496;13.456;2023-05-10T05:48:10;6.13;;;4.07;;
25758;SDS011;13604;52.496;13.456;2023-05-10T05:50:35;10.30;;;4.32;;
25758;SDS011;13604;52.496;13.456;2023-05-10T05:53:00;7.43;;;3.90;;
25758;SDS011;13604;52.496;13.456;2023-05-10T05:55:26;7.55;;;3.78;;
25758;SDS011;13604;52.496;13.456;2023-05-10T05:57:51;7.95;;;3.55;;
25758;SDS011;13604;52.496;13.456;2023-05-10T06:00:16;5.72;;;3.20;;
25758;SDS011;13604;52.496;13.456;2023-05-10T06:02:42;8.88;;;3.53;;
25758;SDS011;13604;52.496;13.456;2023-05-10T06:05:07;4.13;;;3.17;;
25758;SDS011;13604;52.496;13.456;2023-05-10T06:07:34;6.57;;;3.38;;
25758;SDS011;13604;52.496;13.456;2023-05-10T06:10:00;4.20;;;3.05;;
25758;SDS011;13604;52.496;13.456;2023-05-10T06:12:26;14.43;;;3.90;;
25758;SDS011;13604;52.496;13.456;2023-05-10T06:14:51;7.20;;;3.08;;
25758;SDS011;13604;52.496;13.456;2023-05-10T06:17:17;9.68;;;3.58;;
25758;SDS011;13604;52.496;13.456;2023-05-10T06:19:43;8.85;;;3.10;;
25758;SDS011;13604;52.496;13.456;2023-05-10T06:22:08;7.40;;;3.40;;
25758;SDS011;13604;52.496;13.456;2023-05-10T06:24:35;8.82;;;3.40;;
25758;SDS011;13604;52.496;13.456;2023-05-10T06:27:00;5.85;;;2.92;;
25758;SDS011;13604;52.496;13.456;2023-05-10T06:29:26;6.93;;;3.17;;
25758;SDS011;13604;52.496;13.456;2023-05-10T06:31:51;6.03;;;3.20;;
25758;SDS011;13604;52.496;13.456;2023-05-10T06:34:16;6.63;;;2.95;;
25758;SDS011;13604;52.496;13.456;2023-05-10T06:36:41;8.25;;;2.90;;
25758;SDS011;13604;52.496;13.456;2023-05-10T06:39:07;7.30;;;3.25;;
25758;SDS011;13604;52.496;13.456;2023-05-10T06:41:32;10.65;;;3.42;;
25758;SDS011;13604;52.496;13.456;2023-05-10T06:43:57;10.10;;;3.58;;
25758;SDS011;13604;52.496;13.456;2023-05-10T06:46:25;9.32;;;3.13;;
25758;SDS011;13604;52.496;13.456;2023-05-10T06:48:51;9.05;;;3.00;;
25758;SDS011;13604;52.496;13.456;2023-05-10T06:51:16;5.85;;;3.28;;
25758;SDS011;13604;52.496;13.456;2023-05-10T06:53:42;16.02;;;3.38;;
25758;SDS011;13604;52.496;13.456;2023-05-10T06:56:07;4.13;;;3.25;;
25758;SDS011;13604;52.496;13.456;2023-05-10T06:58:33;4.72;;;3.35;;
25758;SDS011;13604;52.496;13.456;2023-05-10T07:01:02;6.63;;;2.70;;
25758;SDS011;13604;52.496;13.456;2023-05-10T07:03:28;7.93;;;3.72;;
25758;SDS011;13604;52.496;13.456;2023-05-10T07:05:53;10.13;;;2.78;;
25758;SDS011;13604;52.496;13.456;2023-05-10T07:08:20;10.25;;;3.30;;
25758;SDS011;13604;52.496;13.456;2023-05-10T07:10:45;4.18;;;3.30;;
25758;SDS011;13604;52.496;13.456;2023-05-10T07:13:10;7.32;;;3.08;;
25758;SDS011;13604;52.496;13.456;2023-05-10T07:15:36;5.40;;;3.00;;
25758;SDS011;13604;52.496;13.456;2023-05-10T07:18:01;5.93;;;2.83;;
25758;SDS011;13604;52.496;13.456;2023-05-10T07:20:32;11.55;;;3.35;;
25758;SDS011;13604;52.496;13.456;2023-05-10T07:22:57;10.13;;;2.92;;
25758;SDS011;13604;52.496;13.456;2023-05-10T07:25:23;5.13;;;2.67;;
25758;SDS011;13604;52.496;13.456;2023-05-10T07:27:49;6.25;;;2.90;;
25758;SDS011;13604;52.496;13.456;2023-05-10T07:30:14;5.40;;;3.53;;
25758;SDS011;13604;52.496;13.456;2023-05-10T07:32:40;10.75;;;2.97;;
25758;SDS011;13604;52.496;13.456;2023-05-10T07:35:06;8.77;;;2.92;;
25758;SDS011;13604;52.496;13.456;2023-05-10T07:37:32;7.63;;;3.17;;
25758;SDS011;13604;52.496;13.456;2023-05-10T07:39:57;7.60;;;2.85;;
25758;SDS011;13604;52.496;13.456;2023-05-10T07:42:23;4.38;;;2.80;;
25758;SDS011;13604;52.496;13.456;2023-05-10T07:44:48;6.45;;;3.03;;
25758;SDS011;13604;52.496;13.456;2023-05-10T07:47:13;7.45;;;3.10;;
25758;SDS011;13604;52.496;13.456;2023-05-10T07:49:39;5.75;;;2.65;;
25758;SDS011;13604;52.496;13.456;2023-05-10T07:52:04;7.53;;;3.00;;
25758;SDS011;13604;52.496;13.456;2023-05-10T07:54:30;4.53;;;3.00;;
25758;SDS011;13604;52.496;13.456;2023-05-10T07:56:55;7.88;;;3.33;;
25758;SDS011;13604;52.496;13.456;2023-05-10T07:59:20;8.52;;;3.00;;
25758;SDS011;13604;52.496;13.456;2023-05-10T08:01:46;8.30;;;2.70;;
25758;SDS011;13604;52.496;13.456;2023-05-10T08:04:11;5.38;;;3.20;;
25758;SDS011;13604;52.496;13.456;2023-05-10T08:06:36;8.15;;;2.95;;
25758;SDS011;13604;52.496;13.456;2023-05-10T08:09:02;3.58;;;2.80;;
25758;SDS011;13604;52.496;13.456;2023-05-10T08:11:27;6.57;;;2.67;;
25758;SDS011;13604;52.496;13.456;2023-05-10T08:13:53;6.40;;;2.97;;
25758;SDS011;13604;52.496;13.456;2023-05-10T08:16:18;10.70;;;2.67;;
25758;SDS011;13604;52.496;13.456;2023-05-10T08:18:44;4.85;;;2.85;;
25758;SDS011;13604;52.496;13.456;2023-05-10T08:21:12;6.80;;;2.85;;
25758;SDS011;13604;52.496;13.456;2023-05-10T08:23:39;10.63;;;2.72;;
25758;SDS011;13604;52.496;13.456;2023-05-10T08:26:08;7.68;;;2.58;;
25758;SDS011;13604;52.496;13.456;2023-05-10T08:28:34;5.68;;;2.47;;
25758;SDS011;13604;52.496;13.456;2023-05-10T08:31:00;5.45;;;3.28;;
25758;SDS011;13604;52.496;13.456;2023-05-10T08:33:25;7.22;;;2.70;;
25758;SDS011;13604;52.496;13.456;2023-05-10T08:35:51;5.50;;;2.80;;
25758;SDS011;13604;52.496;13.456;2023-05-10T08:38:16;5.22;;;2.80;;
25758;SDS011;13604;52.496;13.456;2023-05-10T08:40:41;10.07;;;3.05;;
25758;SDS011;13604;52.496;13.456;2023-05-10T08:43:12;7.32;;;2.65;;
25758;SDS011;13604;52.496;13.456;2023-05-10T08:45:41;7.95;;;2.58;;
25758;SDS011;13604;52.496;13.456;2023-05-10T08:48:09;4.80;;;2.65;;
25758;SDS011;13604;52.496;13.456;2023-05-10T08:50:35;7.00;;;2.45;;
25758;SDS011;13604;52.496;13.456;2023-05-10T08:53:05;9.27;;;2.80;;
25758;SDS011;13604;52.496;13.456;2023-05-10T08:55:34;5.45;;;2.75;;
25758;SDS011;13604;52.496;13.456;2023-05-10T08:58:01;3.80;;;2.65;;
25758;SDS011;13604;52.496;13.456;2023-05-10T09:00:26;4.88;;;2.72;;
25758;SDS011;13604;52.496;13.456;2023-05-10T09:02:53;2.97;;;2.30;;
25758;SDS011;13604;52.496;13.456;2023-05-10T09:05:18;6.78;;;2.67;;
25758;SDS011;13604;52.496;13.456;2023-05-10T09:07:43;4.40;;;2.78;;
25758;SDS011;13604;52.496;13.456;2023-05-10T09:10:09;4.93;;;3.05;;
25758;SDS011;13604;52.496;13.456;2023-05-10T09:12:36;4.80;;;2.70;;
25758;SDS011;13604;52.496;13.456;2023-05-10T09:15:02;3.28;;;2.70;;
25758;SDS011;13604;52.496;13.456;2023-05-10T09:17:29;8.68;;;2.88;;
25758;SDS011;13604;52.496;13.456;2023-05-10T09:20:01;9.30;;;2.45;;
25758;SDS011;13604;52.496;13.456;2023-05-10T09:22:29;7.80;;;2.70;;
25758;SDS011;13604;52.496;13.456;2023-05-10T09:27:34;4.88;;;2.17;;
25758;SDS011;13604;52.496;13.456;2023-05-10T09:30:00;7.97;;;2.65;;
25758;SDS011;13604;52.496;13.456;2023-05-10T09:32:39;2.78;;;2.42;;
25758;SDS011;13604;52.496;13.456;2023-05-10T09:35:13;8.32;;;2.60;;
25758;SDS011;13604;52.496;13.456;2023-05-10T09:37:40;8.90;;;3.00;;
25758;SDS011;13604;52.496;13.456;2023-05-10T09:40:07;6.25;;;2.83;;
25758;SDS011;13604;52.496;13.456;2023-05-10T09:42:33;6.82;;;2.25;;
25758;SDS011;13604;52.496;13.456;2023-05-10T09:45:00;5.82;;;2.45;;
25758;SDS011;13604;52.496;13.456;2023-05-10T09:47:29;9.38;;;2.47;;
25758;SDS011;13604;52.496;13.456;2023-05-10T09:49:55;4.68;;;2.67;;
25758;SDS011;13604;52.496;13.456;2023-05-10T09:52:30;5.22;;;2.92;;
25758;SDS011;13604;52.496;13.456;2023-05-10T09:55:10;7.60;;;2.97;;
25758;SDS011;13604;52.496;13.456;2023-05-10T09:57:35;3.97;;;2.53;;
25758;SDS011;13604;52.496;13.456;2023-05-10T10:00:01;3.00;;;2.45;;
25758;SDS011;13604;52.496;13.456;2023-05-10T10:02:29;3.17;;;2.33;;
25758;SDS011;13604;52.496;13.456;2023-05-10T10:04:55;6.45;;;2.92;;
25758;SDS011;13604;52.496;13.456;2023-05-10T10:07:22;8.38;;;2.70;;
25758;SDS011;13604;52.496;13.456;2023-05-10T10:09:49;10.95;;;3.00;;
25758;SDS011;13604;52.496;13.456;2023-05-10T10:12:15;5.18;;;2.65;;
25758;SDS011;13604;52.496;13.456;2023-05-10T10:14:40;5.35;;;2.92;;
25758;SDS011;13604;52.496;13.456;2023-05-10T10:17:06;8.20;;;3.20;;
25758;SDS011;13604;52.496;13.456;2023-05-10T10:19:34;4.78;;;2.65;;
25758;SDS011;13604;52.496;13.456;2023-05-10T10:22:00;6.63;;;2.85;;
25758;SDS011;13604;52.496;13.456;2023-05-10T10:24:25;6.13;;;2.45;;
25758;SDS011;13604;52.496;13.456;2023-05-10T10:26:51;6.50;;;2.72;;
25758;SDS011;13604;52.496;13.456;2023-05-10T10:29:23;4.22;;;2.42;;
25758;SDS011;13604;52.496;13.456;2023-05-10T10:32:09;8.00;;;2.70;;
25758;SDS011;13604;52.496;13.456;2023-05-10T10:34:45;9.95;;;3.10;;
25758;SDS011;13604;52.496;13.456;2023-05-10T10:37:11;6.80;;;2.60;;
25758;SDS011;13604;52.496;13.456;2023-05-10T10:39:36;8.52;;;2.42;;
25758;SDS011;13604;52.496;13.456;2023-05-10T10:42:02;3.80;;;2.47;;
25758;SDS011;13604;52.496;13.456;2023-05-10T10:49:31;4.32;;;2.60;;
25758;SDS011;13604;52.496;13.456;2023-05-10T10:52:24;6.85;;;2.72;;
25758;SDS011;13604;52.496;13.456;2023-05-10T10:57:28;8.20;;;2.92;;
25758;SDS011;13604;52.496;13.456;2023-05-10T11:07:58;3.22;;;2.58;;
25758;SDS011;13604;52.496;13.456;2023-05-10T11:10:24;5.40;;;2.38;;
25758;SDS011;13604;52.496;13.456;2023-05-10T11:12:52;4.85;;;2.50;;
25758;SDS011;13604;52.496;13.456;2023-05-10T11:15:31;6.18;;;2.47;;
25758;SDS011;13604;52.496;13.456;2023-05-10T11:17:58;6.57;;;2.65;;
25758;SDS011;13604;52.496;13.456;2023-05-10T11:20:24;5.72;;;2.53;;
25758;SDS011;13604;52.496;13.456;2023-05-10T11:22:58;3.42;;;2.28;;
25758;SDS011;13604;52.496;13.456;2023-05-10T11:25:35;7.40;;;3.17;;
25758;SDS011;13604;52.496;13.456;2023-05-10T11:28:06;5.65;;;2.10;;
25758;SDS011;13604;52.496;13.456;2023-05-10T11:30:31;6.82;;;2.28;;
25758;SDS011;13604;52.496;13.456;2023-05-10T11:32:57;6.22;;;2.42;;
25758;SDS011;13604;52.496;13.456;2023-05-10T11:35:22;4.60;;;2.35;;
25758;SDS011;13604;52.496;13.456;2023-05-10T11:37:47;8.57;;;2.10;;
25758;SDS011;13604;52.496;13.456;2023-05-10T11:40:13;4.93;;;2.55;;
25758;SDS011;13604;52.496;13.456;2023-05-10T11:42:39;7.22;;;2.15;;
25758;SDS011;13604;52.496;13.456;2023-05-10T11:45:05;4.53;;;2.08;;
25758;SDS011;13604;52.496;13.456;2023-05-10T11:47:31;5.53;;;2.50;;
25758;SDS011;13604;52.496;13.456;2023-05-10T11:49:57;13.45;;;2.65;;
25758;SDS011;13604;52.496;13.456;2023-05-10T11:52:22;4.07;;;2.00;;
25758;SDS011;13604;52.496;13.456;2023-05-10T11:54:52;4.75;;;2.25;;
25758;SDS011;13604;52.496;13.456;2023-05-10T11:57:19;11.98;;;2.75;;
25758;SDS011;13604;52.496;13.456;2023-05-10T11:59:45;6.40;;;2.10;;
25758;SDS011;13604;52.496;13.456;2023-05-10T12:02:12;5.40;;;2.40;;
25758;SDS011;13604;52.496;13.456;2023-05-10T12:04:38;12.15;;;2.35;;
25758;SDS011;13604;52.496;13.456;2023-05-10T12:07:04;9.82;;;2.35;;
25758;SDS011;13604;52.496;13.456;2023-05-10T12:09:29;9.20;;;2.40;;
25758;SDS011;13604;52.496;13.456;2023-05-10T12:11:55;7.57;;;2.33;;
25758;SDS011;13604;52.496;13.456;2023-05-10T12:14:24;5.05;;;2.30;;
25758;SDS011;13604;52.496;13.456;2023-05-10T12:16:49;7.65;;;2.33;;
25758;SDS011;13604;52.496;13.456;2023-05-10T12:19:18;13.57;;;2.67;;
25758;SDS011;13604;52.496;13.456;2023-05-10T12:22:05;16.40;;;3.00;;
25758;SDS011;13604;52.496;13.456;2023-05-10T12:24:33;6.15;;;2.47;;
25758;SDS011;13604;52.496;13.456;2023-05-10T12:26:59;3.58;;;1.92;;
25758;SDS011;13604;52.496;13.456;2023-05-10T12:29:29;7.03;;;2.00;;
25758;SDS011;13604;52.496;13.456;2023-05-10T12:31:56;4.20;;;2.33;;
25758;SDS011;13604;52.496;13.456;2023-05-10T12:34:26;4.65;;;2.20;;
25758;SDS011;13604;52.496;13.456;2023-05-10T12:36:55;4.85;;;2.30;;
25758;SDS011;13604;52.496;13.456;2023-05-10T12:39:21;3.97;;;2.50;;
25758;SDS011;13604;52.496;13.456;2023-05-10T12:41:46;4.72;;;2.20;;
25758;SDS011;13604;52.496;13.456;2023-05-10T12:44:11;5.00;;;2.10;;
25758;SDS011;13604;52.496;13.456;2023-05-10T12:46:37;6.75;;;2.10;;
25758;SDS011;13604;52.496;13.456;2023-05-10T12:49:02;11.63;;;2.70;;
25758;SDS011;13604;52.496;13.456;2023-05-10T12:51:27;14.00;;;2.50;;
25758;SDS011;13604;52.496;13.456;2023-05-10T12:53:53;4.35;;;2.47;;
25758;SDS011;13604;52.496;13.456;2023-05-10T12:56:19;7.30;;;2.22;;
25758;SDS011;13604;52.496;13.456;2023-05-10T12:58:45;4.90;;;1.95;;
25758;SDS011;13604;52.496;13.456;2023-05-10T13:01:12;6.60;;;2.00;;
25758;SDS011;13604;52.496;13.456;2023-05-10T13:03:38;2.42;;;2.22;;
25758;SDS011;13604;52.496;13.456;2023-05-10T13:06:03;3.42;;;1.90;;
25758;SDS011;13604;52.496;13.456;2023-05-10T13:08:29;5.57;;;2.40;;
25758;SDS011;13604;52.496;13.456;2023-05-10T13:10:58;5.90;;;2.33;;
25758;SDS011;13604;52.496;13.456;2023-05-10T13:13:23;9.10;;;2.10;;
25758;SDS011;13604;52.496;13.456;2023-05-10T13:15:48;6.40;;;2.28;;
25758;SDS011;13604;52.496;13.456;2023-05-10T13:18:14;2.20;;;2.00;;
25758;SDS011;13604;52.496;13.456;2023-05-10T13:20:39;6.03;;;2.20;;
25758;SDS011;13604;52.496;13.456;2023-05-10T13:23:05;5.43;;;2.38;;
25758;SDS011;13604;52.496;13.456;2023-05-10T13:25:30;4.20;;;1.87;;
25758;SDS011;13604;52.496;13.456;2023-05-10T13:27:55;5.03;;;2.15;;
25758;SDS011;13604;52.496;13.456;2023-05-10T13:30:21;7.28;;;2.42;;
25758;SDS011;13604;52.496;13.456;2023-05-10T13:32:46;6.25;;;2.30;;
25758;SDS011;13604;52.496;13.456;2023-05-10T13:35:11;3.95;;;2.17;;
25758;SDS011;13604;52.496;13.456;2023-05-10T13:37:37;4.95;;;2.20;;
25758;SDS011;13604;52.496;13.456;2023-05-10T13:40:02;4.13;;;1.80;;
25758;SDS011;13604;52.496;13.456;2023-05-10T13:42:29;6.70;;;2.17;;
25758;SDS011;13604;52.496;13.456;2023-05-10T13:44:54;4.63;;;2.60;;
25758;SDS011;13604;52.496;13.456;2023-05-10T13:47:20;8.35;;;2.47;;
25758;SDS011;13604;52.496;13.456;2023-05-10T13:49:46;3.22;;;2.05;;
25758;SDS011;13604;52.496;13.456;2023-05-10T13:52:12;10.88;;;2.53;;
25758;SDS011;13604;52.496;13.456;2023-05-10T13:54:37;9.95;;;2.70;;
25758;SDS011;13604;52.496;13.456;2023-05-10T13:57:03;4.82;;;2.35;;
25758;SDS011;13604;52.496;13.456;2023-05-10T13:59:28;4.50;;;2.15;;
25758;SDS011;13604;52.496;13.456;2023-05-10T14:01:54;4.63;;;1.85;;
25758;SDS011;13604;52.496;13.456;2023-05-10T14:04:19;6.68;;;2.40;;
25758;SDS011;13604;52.496;13.456;2023-05-10T14:06:45;6.28;;;2.20;;
25758;SDS011;13604;52.496;13.456;2023-05-10T14:09:11;6.80;;;2.30;;
25758;SDS011;13604;52.496;13.456;2023-05-10T14:11:36;4.30;;;1.90;;
25758;SDS011;13604;52.496;13.456;2023-05-10T14:14:01;2.78;;;1.90;;
25758;SDS011;13604;52.496;13.456;2023-05-10T14:16:27;4.35;;;2.50;;
25758;SDS011;13604;52.496;13.456;2023-05-10T14:18:52;7.07;;;2.35;;
25758;SDS011;13604;52.496;13.456;2023-05-10T14:21:18;7.97;;;2.10;;
25758;SDS011;13604;52.496;13.456;2023-05-10T14:23:43;4.75;;;2.20;;
25758;SDS011;13604;52.496;13.456;2023-05-10T14:26:08;10.13;;;1.80;;
25758;SDS011;13604;52.496;13.456;2023-05-10T14:28:34;3.60;;;1.77;;
25758;SDS011;13604;52.496;13.456;2023-05-10T14:30:59;6.07;;;2.10;;
25758;SDS011;13604;52.496;13.456;2023-05-10T14:33:25;5.55;;;2.00;;
25758;SDS011;13604;52.496;13.456;2023-05-10T14:35:50;5.57;;;2.35;;
25758;SDS011;13604;52.496;13.456;2023-05-10T14:38:16;5.18;;;2.00;;
25758;SDS011;13604;52.496;13.456;2023-05-10T14:40:41;7.40;;;2.30;;
25758;SDS011;13604;52.496;13.456;2023-05-10T14:43:07;2.33;;;2.00;;
25758;SDS011;13604;52.496;13.456;2023-05-10T14:45:33;3.33;;;2.15;;
25758;SDS011;13604;52.496;13.456;2023-05-10T14:47:58;2.75;;;2.35;;
25758;SDS011;13604;52.496;13.456;2023-05-10T14:50:24;5.30;;;2.10;;
25758;SDS011;13604;52.496;13.456;2023-05-10T14:52:50;2.50;;;1.98;;
25758;SDS011;13604;52.496;13.456;2023-05-10T14:55:15;5.53;;;2.53;;
25758;SDS011;13604;52.496;13.456;2023-05-10T14:57:41;5.40;;;2.20;;
25758;SDS011;13604;52.496;13.456;2023-05-10T15:00:06;4.45;;;2.53;;